sensor_id;sensor_type;location;lat;lon;timestamp;temperature;humidity
74364;DHT22;62797;49.740;10.154;2023-09-19T00:00:17;17.50;57.80
74364;DHT22;62797;49.740;10.154;2023-09-19T00:02:45;17.50;57.50
74364;DHT22;62797;49.740;10.154;2023-09-19T00:05:12;17.50;58.00
74364;DHT22;62797;49.740;10.154;2023-09-19T00:07:38;17.50;58.20
74364;DHT22;62797;49.740;10.154;2023-09-19T00:10:04;17.40;57.80
74364;DHT22;62797;49.740;10.154;2023-09-19T00:12:30;17.50;57.60
74364;DHT22;62797;49.740;10.154;2023-09-19T00:14:55;17.50;57.70
74364;DHT22;62797;49.740;10.154;2023-09-19T00:17:22;17.50;57.20
74364;DHT22;62797;49.740;10.154;2023-09-19T00:19:47;17.50;57.30
74364;DHT22;62797;49.740;10.154;2023-09-19T00:22:17;17.50;57.00
74364;DHT22;62797;49.740;10.154;2023-09-19T00:24:44;17.50;56.50
74364;DHT22;62797;49.740;10.154;2023-09-19T00:27:10;17.50;57.10
74364;DHT22;62797;49.740;10.154;2023-09-19T00:29:35;17.50;57.00
74364;DHT22;62797;49.740;10.154;2023-09-19T00:32:01;17.50;56.70
74364;DHT22;62797;49.740;10.154;2023-09-19T00:34:29;17.50;56.80
74364;DHT22;62797;49.740;10.154;2023-09-19T00:36:56;17.50;57.10
74364;DHT22;62797;49.740;10.154;2023-09-19T00:39:21;17.50;56.90
74364;DHT22;62797;49.740;10.154;2023-09-19T00:41:47;17.50;57.60
74364;DHT22;62797;49.740;10.154;2023-09-19T00:44:13;17.60;56.30
74364;DHT22;62797;49.740;10.154;2023-09-19T00:46:39;17.50;56.20
74364;DHT22;62797;49.740;10.154;2023-09-19T00:49:04;17.50;57.00
74364;DHT22;62797;49.740;10.154;2023-09-19T00:51:33;17.50;57.00
74364;DHT22;62797;49.740;10.154;2023-09-19T00:54:02;17.50;56.70
74364;DHT22;62797;49.740;10.154;2023-09-19T00:56:27;17.50;56.40
74364;DHT22;62797;49.740;10.154;2023-09-19T00:58:53;17.60;56.00
74364;DHT22;62797;49.740;10.154;2023-09-19T01:01:19;17.60;56.20
74364;DHT22;62797;49.740;10.154;2023-09-19T01:03:45;17.70;56.00
74364;DHT22;62797;49.740;10.154;2023-09-19T01:06:12;17.60;55.80
74364;DHT22;62797;49.740;10.154;2023-09-19T01:08:38;17.70;55.90
74364;DHT22;62797;49.740;10.154;2023-09-19T01:13:52;17.70;55.60
74364;DHT22;62797;49.740;10.154;2023-09-19T01:19:07;17.80;55.10
74364;DHT22;62797;49.740;10.154;2023-09-19T01:29:42;17.90;55.10
74364;DHT22;62797;49.740;10.154;2023-09-19T01:32:10;17.90;55.30
74364;DHT22;62797;49.740;10.154;2023-09-19T01:34:48;17.80;55.50
74364;DHT22;62797;49.740;10.154;2023-09-19T01:37:17;17.80;55.90
74364;DHT22;62797;49.740;10.154;2023-09-19T01:39:50;17.80;55.60
74364;DHT22;62797;49.740;10.154;2023-09-19T01:42:21;17.70;56.50
74364;DHT22;62797;49.740;10.154;2023-09-19T01:47:32;17.60;57.00
74364;DHT22;62797;49.740;10.154;2023-09-19T01:52:51;17.70;56.80
74364;DHT22;62797;49.740;10.154;2023-09-19T01:55:19;17.60;57.30
74364;DHT22;62797;49.740;10.154;2023-09-19T01:58:01;17.60;57.80
74364;DHT22;62797;49.740;10.154;2023-09-19T02:00:27;17.60;57.80
74364;DHT22;62797;49.740;10.154;2023-09-19T02:02:54;17.60;58.00
74364;DHT22;62797;49.740;10.154;2023-09-19T02:05:24;17.70;57.50
74364;DHT22;62797;49.740;10.154;2023-09-19T02:07:50;17.70;57.40
74364;DHT22;62797;49.740;10.154;2023-09-19T02:10:16;17.60;57.60
74364;DHT22;62797;49.740;10.154;2023-09-19T02:12:42;17.60;57.80
74364;DHT22;62797;49.740;10.154;2023-09-19T02:15:08;17.60;58.00
74364;DHT22;62797;49.740;10.154;2023-09-19T02:17:34;17.60;58.20
74364;DHT22;62797;49.740;10.154;2023-09-19T02:20:00;17.60;58.10
74364;DHT22;62797;49.740;10.154;2023-09-19T02:22:26;17.50;59.10
74364;DHT22;62797;49.740;10.154;2023-09-19T02:24:52;17.50;59.30
74364;DHT22;62797;49.740;10.154;2023-09-19T02:27:19;17.50;60.20
74364;DHT22;62797;49.740;10.154;2023-09-19T02:29:44;17.50;59.40
74364;DHT22;62797;49.740;10.154;2023-09-19T02:32:10;17.50;59.30
74364;DHT22;62797;49.740;10.154;2023-09-19T02:34:36;17.60;59.40
74364;DHT22;62797;49.740;10.154;2023-09-19T02:37:05;17.50;59.30
74364;DHT22;62797;49.740;10.154;2023-09-19T02:39:31;17.40;59.50
74364;DHT22;62797;49.740;10.154;2023-09-19T02:41:57;17.40;59.90
74364;DHT22;62797;49.740;10.154;2023-09-19T02:44:23;17.40;60.00
74364;DHT22;62797;49.740;10.154;2023-09-19T02:46:50;17.50;59.80
74364;DHT22;62797;49.740;10.154;2023-09-19T02:49:16;17.40;60.40
74364;DHT22;62797;49.740;10.154;2023-09-19T02:51:43;17.40;60.40
74364;DHT22;62797;49.740;10.154;2023-09-19T02:54:09;17.40;60.20
74364;DHT22;62797;49.740;10.154;2023-09-19T02:56:35;17.40;60.80
74364;DHT22;62797;49.740;10.154;2023-09-19T02:59:01;17.30;61.10
74364;DHT22;62797;49.740;10.154;2023-09-19T03:01:27;17.30;61.30
74364;DHT22;62797;49.740;10.154;2023-09-19T03:03:53;17.30;61.60
74364;DHT22;62797;49.740;10.154;2023-09-19T03:06:20;17.20;61.80
74364;DHT22;62797;49.740;10.154;2023-09-19T03:08:47;17.30;61.40
74364;DHT22;62797;49.740;10.154;2023-09-19T03:11:14;17.30;61.50
74364;DHT22;62797;49.740;10.154;2023-09-19T03:13:44;17.40;61.50
74364;DHT22;62797;49.740;10.154;2023-09-19T03:16:11;17.30;62.00
74364;DHT22;62797;49.740;10.154;2023-09-19T03:18:37;17.30;61.90
74364;DHT22;62797;49.740;10.154;2023-09-19T03:21:03;17.30;61.80
74364;DHT22;62797;49.740;10.154;2023-09-19T03:23:29;17.30;61.90
74364;DHT22;62797;49.740;10.154;2023-09-19T03:25:55;17.30;62.30
74364;DHT22;62797;49.740;10.154;2023-09-19T03:28:22;17.40;61.70
74364;DHT22;62797;49.740;10.154;2023-09-19T03:31:00;17.40;61.40
74364;DHT22;62797;49.740;10.154;2023-09-19T03:33:26;17.40;61.20
74364;DHT22;62797;49.740;10.154;2023-09-19T03:35:53;17.40;61.80
74364;DHT22;62797;49.740;10.154;2023-09-19T03:38:20;17.40;61.80
74364;DHT22;62797;49.740;10.154;2023-09-19T03:40:47;17.40;61.70
74364;DHT22;62797;49.740;10.154;2023-09-19T03:43:13;17.40;61.50
74364;DHT22;62797;49.740;10.154;2023-09-19T03:45:38;17.40;61.90
74364;DHT22;62797;49.740;10.154;2023-09-19T03:48:08;17.50;62.70
74364;DHT22;62797;49.740;10.154;2023-09-19T03:50:34;17.50;62.70
74364;DHT22;62797;49.740;10.154;2023-09-19T03:53:00;17.40;63.50
74364;DHT22;62797;49.740;10.154;2023-09-19T03:55:25;17.40;65.00
74364;DHT22;62797;49.740;10.154;2023-09-19T03:57:51;17.20;66.20
74364;DHT22;62797;49.740;10.154;2023-09-19T04:00:18;17.20;68.00
74364;DHT22;62797;49.740;10.154;2023-09-19T04:02:46;17.00;69.80
74364;DHT22;62797;49.740;10.154;2023-09-19T04:05:12;16.70;72.70
74364;DHT22;62797;49.740;10.154;2023-09-19T04:07:38;16.50;73.70
74364;DHT22;62797;49.740;10.154;2023-09-19T04:10:03;16.40;75.40
74364;DHT22;62797;49.740;10.154;2023-09-19T04:12:29;16.30;77.00
74364;DHT22;62797;49.740;10.154;2023-09-19T04:14:55;16.20;78.80
74364;DHT22;62797;49.740;10.154;2023-09-19T04:17:21;16.20;80.00
74364;DHT22;62797;49.740;10.154;2023-09-19T04:19:46;16.10;80.50
74364;DHT22;62797;49.740;10.154;2023-09-19T04:22:14;16.10;80.00
74364;DHT22;62797;49.740;10.154;2023-09-19T04:24:40;16.10;80.40
74364;DHT22;62797;49.740;10.154;2023-09-19T04:27:05;16.00;80.80
74364;DHT22;62797;49.740;10.154;2023-09-19T04:29:32;15.90;80.40
74364;DHT22;62797;49.740;10.154;2023-09-19T04:31:58;15.80;80.20
74364;DHT22;62797;49.740;10.154;2023-09-19T04:34:23;15.80;80.10
74364;DHT22;62797;49.740;10.154;2023-09-19T04:36:49;15.80;80.10
74364;DHT22;62797;49.740;10.154;2023-09-19T04:39:15;15.60;81.70
74364;DHT22;62797;49.740;10.154;2023-09-19T04:41:42;15.60;80.60
74364;DHT22;62797;49.740;10.154;2023-09-19T04:44:07;15.60;80.80
74364;DHT22;62797;49.740;10.154;2023-09-19T04:46:33;15.60;81.70
74364;DHT22;62797;49.740;10.154;2023-09-19T04:48:59;15.60;82.70
74364;DHT22;62797;49.740;10.154;2023-09-19T04:51:24;15.50;82.00
74364;DHT22;62797;49.740;10.154;2023-09-19T04:53:52;15.50;81.60
74364;DHT22;62797;49.740;10.154;2023-09-19T04:56:17;15.50;81.90
74364;DHT22;62797;49.740;10.154;2023-09-19T04:58:43;15.50;81.50
74364;DHT22;62797;49.740;10.154;2023-09-19T05:01:11;15.50;81.70
74364;DHT22;62797;49.740;10.154;2023-09-19T05:03:37;15.50;82.00
74364;DHT22;62797;49.740;10.154;2023-09-19T05:06:03;15.50;82.20
74364;DHT22;62797;49.740;10.154;2023-09-19T05:08:30;15.50;82.70
74364;DHT22;62797;49.740;10.154;2023-09-19T05:10:56;15.50;81.70
74364;DHT22;62797;49.740;10.154;2023-09-19T05:13:22;15.50;82.50
74364;DHT22;62797;49.740;10.154;2023-09-19T05:15:49;15.50;82.40
74364;DHT22;62797;49.740;10.154;2023-09-19T05:18:17;15.50;83.20
74364;DHT22;62797;49.740;10.154;2023-09-19T05:20:43;15.60;82.80
74364;DHT22;62797;49.740;10.154;2023-09-19T05:23:09;15.60;83.70
74364;DHT22;62797;49.740;10.154;2023-09-19T05:25:37;15.60;83.70
74364;DHT22;62797;49.740;10.154;2023-09-19T05:28:04;15.60;83.50
74364;DHT22;62797;49.740;10.154;2023-09-19T05:30:31;15.60;83.60
74364;DHT22;62797;49.740;10.154;2023-09-19T05:32:57;15.60;83.40
74364;DHT22;62797;49.740;10.154;2023-09-19T05:35:23;15.70;83.50
74364;DHT22;62797;49.740;10.154;2023-09-19T05:37:52;15.70;84.10
74364;DHT22;62797;49.740;10.154;2023-09-19T05:40:18;15.70;83.90
74364;DHT22;62797;49.740;10.154;2023-09-19T05:42:44;15.80;83.80
74364;DHT22;62797;49.740;10.154;2023-09-19T05:45:12;15.80;84.40
74364;DHT22;62797;49.740;10.154;2023-09-19T05:47:41;15.80;84.50
74364;DHT22;62797;49.740;10.154;2023-09-19T05:50:08;15.80;84.70
74364;DHT22;62797;49.740;10.154;2023-09-19T05:52:35;15.80;84.80
74364;DHT22;62797;49.740;10.154;2023-09-19T05:55:00;15.80;84.60
74364;DHT22;62797;49.740;10.154;2023-09-19T05:57:26;15.80;85.20
74364;DHT22;62797;49.740;10.154;2023-09-19T05:59:53;15.90;85.30
74364;DHT22;62797;49.740;10.154;2023-09-19T06:02:18;16.00;85.10
74364;DHT22;62797;49.740;10.154;2023-09-19T06:04:45;16.00;85.50
74364;DHT22;62797;49.740;10.154;2023-09-19T06:07:10;15.90;85.50
74364;DHT22;62797;49.740;10.154;2023-09-19T06:09:36;16.00;85.40
74364;DHT22;62797;49.740;10.154;2023-09-19T06:12:02;16.00;85.90
74364;DHT22;62797;49.740;10.154;2023-09-19T06:14:29;16.10;86.30
74364;DHT22;62797;49.740;10.154;2023-09-19T06:16:54;16.20;86.30
74364;DHT22;62797;49.740;10.154;2023-09-19T06:19:20;16.20;86.20
74364;DHT22;62797;49.740;10.154;2023-09-19T06:21:48;16.30;86.30
74364;DHT22;62797;49.740;10.154;2023-09-19T06:24:14;16.30;86.20
74364;DHT22;62797;49.740;10.154;2023-09-19T06:26:40;16.30;86.10
74364;DHT22;62797;49.740;10.154;2023-09-19T06:29:06;16.30;86.00
74364;DHT22;62797;49.740;10.154;2023-09-19T06:31:33;16.40;86.50
74364;DHT22;62797;49.740;10.154;2023-09-19T06:33:58;16.40;86.50
74364;DHT22;62797;49.740;10.154;2023-09-19T06:36:24;16.50;86.50
74364;DHT22;62797;49.740;10.154;2023-09-19T06:38:50;16.50;85.80
74364;DHT22;62797;49.740;10.154;2023-09-19T06:41:19;16.60;85.60
74364;DHT22;62797;49.740;10.154;2023-09-19T06:43:47;16.60;85.30
74364;DHT22;62797;49.740;10.154;2023-09-19T06:46:13;16.70;85.30
74364;DHT22;62797;49.740;10.154;2023-09-19T06:48:38;16.70;83.20
74364;DHT22;62797;49.740;10.154;2023-09-19T06:51:04;16.70;79.80
74364;DHT22;62797;49.740;10.154;2023-09-19T06:53:33;16.60;79.40
74364;DHT22;62797;49.740;10.154;2023-09-19T06:56:02;16.50;81.00
74364;DHT22;62797;49.740;10.154;2023-09-19T06:58:27;16.40;82.30
74364;DHT22;62797;49.740;10.154;2023-09-19T07:00:53;16.40;82.90
74364;DHT22;62797;49.740;10.154;2023-09-19T07:03:19;16.40;82.00
74364;DHT22;62797;49.740;10.154;2023-09-19T07:05:49;16.40;82.60
74364;DHT22;62797;49.740;10.154;2023-09-19T07:08:15;16.30;78.90
74364;DHT22;62797;49.740;10.154;2023-09-19T07:10:41;16.20;77.30
74364;DHT22;62797;49.740;10.154;2023-09-19T07:13:12;16.20;79.30
74364;DHT22;62797;49.740;10.154;2023-09-19T07:15:38;16.20;80.10
74364;DHT22;62797;49.740;10.154;2023-09-19T07:18:06;16.10;81.00
74364;DHT22;62797;49.740;10.154;2023-09-19T07:20:32;16.10;74.30
74364;DHT22;62797;49.740;10.154;2023-09-19T07:22:59;16.10;75.90
74364;DHT22;62797;49.740;10.154;2023-09-19T07:25:26;16.20;75.30
74364;DHT22;62797;49.740;10.154;2023-09-19T07:27:52;16.20;72.80
74364;DHT22;62797;49.740;10.154;2023-09-19T07:30:17;16.30;73.80
74364;DHT22;62797;49.740;10.154;2023-09-19T07:32:43;16.40;72.90
74364;DHT22;62797;49.740;10.154;2023-09-19T07:35:08;16.40;69.00
74364;DHT22;62797;49.740;10.154;2023-09-19T07:37:34;16.30;70.60
74364;DHT22;62797;49.740;10.154;2023-09-19T07:40:04;16.30;73.10
74364;DHT22;62797;49.740;10.154;2023-09-19T07:42:36;16.40;74.70
74364;DHT22;62797;49.740;10.154;2023-09-19T07:45:04;16.40;74.70
74364;DHT22;62797;49.740;10.154;2023-09-19T07:47:30;16.40;69.80
74364;DHT22;62797;49.740;10.154;2023-09-19T07:49:58;16.50;64.30
74364;DHT22;62797;49.740;10.154;2023-09-19T07:52:24;16.50;65.30
74364;DHT22;62797;49.740;10.154;2023-09-19T07:54:49;16.40;68.30
74364;DHT22;62797;49.740;10.154;2023-09-19T07:57:15;16.40;67.60
74364;DHT22;62797;49.740;10.154;2023-09-19T07:59:41;16.50;69.40
74364;DHT22;62797;49.740;10.154;2023-09-19T08:02:07;16.60;68.90
74364;DHT22;62797;49.740;10.154;2023-09-19T08:04:35;16.70;69.90
74364;DHT22;62797;49.740;10.154;2023-09-19T08:07:00;16.80;65.20
74364;DHT22;62797;49.740;10.154;2023-09-19T08:09:28;17.00;61.70
74364;DHT22;62797;49.740;10.154;2023-09-19T08:11:58;17.00;65.50
74364;DHT22;62797;49.740;10.154;2023-09-19T08:14:24;16.90;62.40
74364;DHT22;62797;49.740;10.154;2023-09-19T08:16:51;17.00;64.60
74364;DHT22;62797;49.740;10.154;2023-09-19T08:19:16;17.10;61.90
74364;DHT22;62797;49.740;10.154;2023-09-19T08:21:42;17.20;62.50
74364;DHT22;62797;49.740;10.154;2023-09-19T08:24:12;17.00;58.80
74364;DHT22;62797;49.740;10.154;2023-09-19T08:26:37;17.00;57.90
74364;DHT22;62797;49.740;10.154;2023-09-19T08:29:03;17.10;56.10
74364;DHT22;62797;49.740;10.154;2023-09-19T08:31:30;17.10;58.70
74364;DHT22;62797;49.740;10.154;2023-09-19T08:33:56;17.10;59.20
74364;DHT22;62797;49.740;10.154;2023-09-19T08:36:21;17.10;60.10
74364;DHT22;62797;49.740;10.154;2023-09-19T08:38:47;17.10;58.30
74364;DHT22;62797;49.740;10.154;2023-09-19T08:41:14;17.30;55.90
74364;DHT22;62797;49.740;10.154;2023-09-19T08:43:42;17.30;57.10
74364;DHT22;62797;49.740;10.154;2023-09-19T08:46:11;17.40;57.90
74364;DHT22;62797;49.740;10.154;2023-09-19T08:48:39;17.60;52.60
74364;DHT22;62797;49.740;10.154;2023-09-19T08:51:12;17.50;56.00
74364;DHT22;62797;49.740;10.154;2023-09-19T08:53:51;17.50;53.30
74364;DHT22;62797;49.740;10.154;2023-09-19T08:56:17;17.70;53.60
74364;DHT22;62797;49.740;10.154;2023-09-19T08:58:48;17.70;53.40
74364;DHT22;62797;49.740;10.154;2023-09-19T09:01:15;17.90;52.40
74364;DHT22;62797;49.740;10.154;2023-09-19T09:03:42;17.90;53.70
74364;DHT22;62797;49.740;10.154;2023-09-19T09:06:13;18.00;48.50
74364;DHT22;62797;49.740;10.154;2023-09-19T09:08:40;18.00;48.60
74364;DHT22;62797;49.740;10.154;2023-09-19T09:11:07;18.10;49.30
74364;DHT22;62797;49.740;10.154;2023-09-19T09:13:34;18.00;48.80
74364;DHT22;62797;49.740;10.154;2023-09-19T09:16:00;17.90;50.70
74364;DHT22;62797;49.740;10.154;2023-09-19T09:18:27;18.00;46.80
74364;DHT22;62797;49.740;10.154;2023-09-19T09:20:53;18.10;47.40
74364;DHT22;62797;49.740;10.154;2023-09-19T09:23:23;17.90;50.10
74364;DHT22;62797;49.740;10.154;2023-09-19T09:25:53;17.90;52.10
74364;DHT22;62797;49.740;10.154;2023-09-19T09:28:25;18.00;51.80
74364;DHT22;62797;49.740;10.154;2023-09-19T09:30:53;18.10;49.00
74364;DHT22;62797;49.740;10.154;2023-09-19T09:33:19;18.20;47.30
74364;DHT22;62797;49.740;10.154;2023-09-19T09:35:52;18.20;52.00
74364;DHT22;62797;49.740;10.154;2023-09-19T09:38:18;18.40;46.30
74364;DHT22;62797;49.740;10.154;2023-09-19T09:40:48;18.50;46.60
74364;DHT22;62797;49.740;10.154;2023-09-19T09:43:27;18.60;42.80
74364;DHT22;62797;49.740;10.154;2023-09-19T09:46:13;18.70;42.90
74364;DHT22;62797;49.740;10.154;2023-09-19T09:51:40;18.90;39.40
74364;DHT22;62797;49.740;10.154;2023-09-19T09:54:13;19.00;38.40
74364;DHT22;62797;49.740;10.154;2023-09-19T09:56:59;19.00;37.60
74364;DHT22;62797;49.740;10.154;2023-09-19T10:02:18;18.80;36.50
74364;DHT22;62797;49.740;10.154;2023-09-19T10:04:49;18.70;37.20
74364;DHT22;62797;49.740;10.154;2023-09-19T10:07:30;18.60;36.30
74364;DHT22;62797;49.740;10.154;2023-09-19T10:10:29;18.60;35.80
74364;DHT22;62797;49.740;10.154;2023-09-19T10:12:55;18.70;33.90
74364;DHT22;62797;49.740;10.154;2023-09-19T10:15:28;18.70;33.80
74364;DHT22;62797;49.740;10.154;2023-09-19T10:17:57;18.60;34.90
74364;DHT22;62797;49.740;10.154;2023-09-19T10:20:26;18.70;33.40
74364;DHT22;62797;49.740;10.154;2023-09-19T10:22:56;18.80;33.60
74364;DHT22;62797;49.740;10.154;2023-09-19T10:25:25;18.80;30.90
74364;DHT22;62797;49.740;10.154;2023-09-19T10:27:51;18.70;33.90
74364;DHT22;62797;49.740;10.154;2023-09-19T10:30:18;18.80;32.10
74364;DHT22;62797;49.740;10.154;2023-09-19T10:32:45;18.80;33.40
74364;DHT22;62797;49.740;10.154;2023-09-19T10:35:12;18.80;35.10
74364;DHT22;62797;49.740;10.154;2023-09-19T10:37:40;18.90;33.80
74364;DHT22;62797;49.740;10.154;2023-09-19T10:40:06;19.00;30.20
74364;DHT22;62797;49.740;10.154;2023-09-19T10:42:34;19.00;30.10
74364;DHT22;62797;49.740;10.154;2023-09-19T10:45:03;19.20;29.70
74364;DHT22;62797;49.740;10.154;2023-09-19T10:47:32;19.30;30.30
74364;DHT22;62797;49.740;10.154;2023-09-19T10:49:58;19.30;30.20
74364;DHT22;62797;49.740;10.154;2023-09-19T10:52:24;19.30;30.60
74364;DHT22;62797;49.740;10.154;2023-09-19T10:54:50;19.20;30.80
74364;DHT22;62797;49.740;10.154;2023-09-19T10:57:22;19.20;29.80
74364;DHT22;62797;49.740;10.154;2023-09-19T11:00:22;19.30;27.70
74364;DHT22;62797;49.740;10.154;2023-09-19T11:05:32;19.50;28.70
74364;DHT22;62797;49.740;10.154;2023-09-19T11:08:00;19.70;27.10
74364;DHT22;62797;49.740;10.154;2023-09-19T11:10:45;19.80;26.00
74364;DHT22;62797;49.740;10.154;2023-09-19T11:13:27;19.80;25.70
74364;DHT22;62797;49.740;10.154;2023-09-19T11:19:04;19.90;23.80
74364;DHT22;62797;49.740;10.154;2023-09-19T11:26:42;20.30;22.70
74364;DHT22;62797;49.740;10.154;2023-09-19T11:29:30;20.20;23.00
74364;DHT22;62797;49.740;10.154;2023-09-19T11:31:57;20.30;23.60
74364;DHT22;62797;49.740;10.154;2023-09-19T11:37:02;20.40;22.20
74364;DHT22;62797;49.740;10.154;2023-09-19T11:39:34;20.20;23.00
74364;DHT22;62797;49.740;10.154;2023-09-19T11:42:00;20.20;22.90
74364;DHT22;62797;49.740;10.154;2023-09-19T11:46:55;20.30;22.10
74364;DHT22;62797;49.740;10.154;2023-09-19T11:49:29;20.30;23.00
74364;DHT22;62797;49.740;10.154;2023-09-19T11:51:59;20.50;22.10
74364;DHT22;62797;49.740;10.154;2023-09-19T11:54:31;20.60;23.00
74364;DHT22;62797;49.740;10.154;2023-09-19T11:56:57;20.60;24.50
74364;DHT22;62797;49.740;10.154;2023-09-19T11:59:24;20.80;22.40
74364;DHT22;62797;49.740;10.154;2023-09-19T12:01:57;20.90;22.90
74364;DHT22;62797;49.740;10.154;2023-09-19T12:04:36;20.80;22.20
74364;DHT22;62797;49.740;10.154;2023-09-19T12:07:07;20.70;22.40
74364;DHT22;62797;49.740;10.154;2023-09-19T12:09:38;20.60;23.80
74364;DHT22;62797;49.740;10.154;2023-09-19T12:12:04;20.60;24.00
74364;DHT22;62797;49.740;10.154;2023-09-19T12:14:29;20.60;22.70
74364;DHT22;62797;49.740;10.154;2023-09-19T12:16:57;20.70;22.90
74364;DHT22;62797;49.740;10.154;2023-09-19T12:19:24;20.70;23.80
74364;DHT22;62797;49.740;10.154;2023-09-19T12:21:57;20.60;24.00
74364;DHT22;62797;49.740;10.154;2023-09-19T12:24:30;20.50;21.70
74364;DHT22;62797;49.740;10.154;2023-09-19T12:27:05;20.40;21.20
74364;DHT22;62797;49.740;10.154;2023-09-19T12:29:32;20.60;20.10
74364;DHT22;62797;49.740;10.154;2023-09-19T12:32:06;20.60;20.00
74364;DHT22;62797;49.740;10.154;2023-09-19T12:34:32;20.70;21.80
74364;DHT22;62797;49.740;10.154;2023-09-19T12:37:11;20.80;21.00
74364;DHT22;62797;49.740;10.154;2023-09-19T12:39:46;21.00;20.30
74364;DHT22;62797;49.740;10.154;2023-09-19T12:42:15;21.20;19.30
74364;DHT22;62797;49.740;10.154;2023-09-19T12:44:41;21.20;20.00
74364;DHT22;62797;49.740;10.154;2023-09-19T12:47:12;21.30;19.80
74364;DHT22;62797;49.740;10.154;2023-09-19T12:52:24;21.10;19.20
74364;DHT22;62797;49.740;10.154;2023-09-19T12:54:51;20.90;20.00
74364;DHT22;62797;49.740;10.154;2023-09-19T12:57:23;20.90;19.70
74364;DHT22;62797;49.740;10.154;2023-09-19T12:59:51;20.80;19.40
74364;DHT22;62797;49.740;10.154;2023-09-19T13:02:17;21.00;20.50
74364;DHT22;62797;49.740;10.154;2023-09-19T13:04:55;21.30;19.40
74364;DHT22;62797;49.740;10.154;2023-09-19T13:07:40;21.70;21.30
74364;DHT22;62797;49.740;10.154;2023-09-19T13:10:08;22.30;17.70
74364;DHT22;62797;49.740;10.154;2023-09-19T13:12:35;22.70;18.70
74364;DHT22;62797;49.740;10.154;2023-09-19T13:15:13;22.70;17.00
74364;DHT22;62797;49.740;10.154;2023-09-19T13:17:48;22.90;17.20
74364;DHT22;62797;49.740;10.154;2023-09-19T13:20:24;22.70;15.30
74364;DHT22;62797;49.740;10.154;2023-09-19T13:22:55;22.30;15.60
74364;DHT22;62797;49.740;10.154;2023-09-19T13:25:25;22.00;16.10
74364;DHT22;62797;49.740;10.154;2023-09-19T13:27:52;21.80;16.60
74364;DHT22;62797;49.740;10.154;2023-09-19T13:30:19;22.00;16.80
74364;DHT22;62797;49.740;10.154;2023-09-19T13:32:46;22.10;16.80
74364;DHT22;62797;49.740;10.154;2023-09-19T13:35:12;21.90;16.00
74364;DHT22;62797;49.740;10.154;2023-09-19T13:37:38;21.80;16.40
74364;DHT22;62797;49.740;10.154;2023-09-19T13:40:10;21.70;16.70
74364;DHT22;62797;49.740;10.154;2023-09-19T13:42:36;21.70;16.30
74364;DHT22;62797;49.740;10.154;2023-09-19T13:45:05;21.80;16.20
74364;DHT22;62797;49.740;10.154;2023-09-19T13:47:31;22.10;17.40
74364;DHT22;62797;49.740;10.154;2023-09-19T13:50:02;22.50;16.30
74364;DHT22;62797;49.740;10.154;2023-09-19T13:52:29;22.80;15.80
74364;DHT22;62797;49.740;10.154;2023-09-19T13:54:55;22.90;14.80
74364;DHT22;62797;49.740;10.154;2023-09-19T13:57:27;23.00;14.50
74364;DHT22;62797;49.740;10.154;2023-09-19T13:59:54;23.10;15.50
74364;DHT22;62797;49.740;10.154;2023-09-19T14:02:20;23.50;14.90
74364;DHT22;62797;49.740;10.154;2023-09-19T14:04:48;23.50;14.00
74364;DHT22;62797;49.740;10.154;2023-09-19T14:07:15;23.30;14.10
74364;DHT22;62797;49.740;10.154;2023-09-19T14:09:40;23.20;14.60
74364;DHT22;62797;49.740;10.154;2023-09-19T14:12:06;23.30;15.60
74364;DHT22;62797;49.740;10.154;2023-09-19T14:14:32;23.60;12.80
74364;DHT22;62797;49.740;10.154;2023-09-19T14:16:57;23.60;13.10
74364;DHT22;62797;49.740;10.154;2023-09-19T14:19:26;23.70;14.50
74364;DHT22;62797;49.740;10.154;2023-09-19T14:21:52;23.70;13.00
74364;DHT22;62797;49.740;10.154;2023-09-19T14:24:20;23.70;13.60
74364;DHT22;62797;49.740;10.154;2023-09-19T14:26:46;23.60;13.80
74364;DHT22;62797;49.740;10.154;2023-09-19T14:29:12;23.70;13.50
74364;DHT22;62797;49.740;10.154;2023-09-19T14:31:38;23.70;13.10
74364;DHT22;62797;49.740;10.154;2023-09-19T14:34:07;23.60;13.30
74364;DHT22;62797;49.740;10.154;2023-09-19T14:36:35;23.50;15.50
74364;DHT22;62797;49.740;10.154;2023-09-19T14:39:01;23.30;14.40
74364;DHT22;62797;49.740;10.154;2023-09-19T14:41:27;23.20;14.40
74364;DHT22;62797;49.740;10.154;2023-09-19T14:43:53;23.00;13.90
74364;DHT22;62797;49.740;10.154;2023-09-19T14:46:20;22.80;14.10
74364;DHT22;62797;49.740;10.154;2023-09-19T14:48:46;22.70;15.00
74364;DHT22;62797;49.740;10.154;2023-09-19T14:51:14;22.70;15.00
74364;DHT22;62797;49.740;10.154;2023-09-19T14:53:40;22.70;14.50
74364;DHT22;62797;49.740;10.154;2023-09-19T14:56:09;22.80;14.70
74364;DHT22;62797;49.740;10.154;2023-09-19T14:58:36;22.80;14.30
74364;DHT22;62797;49.740;10.154;2023-09-19T15:01:07;22.80;15.20
74364;DHT22;62797;49.740;10.154;2023-09-19T15:03:35;23.00;15.10
74364;DHT22;62797;49.740;10.154;2023-09-19T15:06:04;23.00;14.20
74364;DHT22;62797;49.740;10.154;2023-09-19T15:08:31;23.00;15.90
74364;DHT22;62797;49.740;10.154;2023-09-19T15:10:56;23.00;14.10
74364;DHT22;62797;49.740;10.154;2023-09-19T15:13:24;22.90;14.70
74364;DHT22;62797;49.740;10.154;2023-09-19T15:16:00;23.00;15.20
74364;DHT22;62797;49.740;10.154;2023-09-19T15:18:26;23.00;15.30
74364;DHT22;62797;49.740;10.154;2023-09-19T15:20:52;22.90;15.00
74364;DHT22;62797;49.740;10.154;2023-09-19T15:23:18;22.90;15.30
74364;DHT22;62797;49.740;10.154;2023-09-19T15:25:53;23.00;15.90
74364;DHT22;62797;49.740;10.154;2023-09-19T15:28:21;23.00;15.50
74364;DHT22;62797;49.740;10.154;2023-09-19T15:30:48;23.00;16.20
74364;DHT22;62797;49.740;10.154;2023-09-19T15:33:14;23.10;15.20
74364;DHT22;62797;49.740;10.154;2023-09-19T15:35:40;23.10;15.10
74364;DHT22;62797;49.740;10.154;2023-09-19T15:38:05;23.00;15.40
74364;DHT22;62797;49.740;10.154;2023-09-19T15:40:33;23.00;16.20
74364;DHT22;62797;49.740;10.154;2023-09-19T15:42:59;22.80;15.20
74364;DHT22;62797;49.740;10.154;2023-09-19T15:45:25;22.60;15.70
74364;DHT22;62797;49.740;10.154;2023-09-19T15:47:51;22.50;16.70
74364;DHT22;62797;49.740;10.154;2023-09-19T15:50:17;22.50;16.30
74364;DHT22;62797;49.740;10.154;2023-09-19T15:52:42;22.30;17.40
74364;DHT22;62797;49.740;10.154;2023-09-19T15:55:08;22.40;16.80
74364;DHT22;62797;49.740;10.154;2023-09-19T15:57:36;22.30;17.70
74364;DHT22;62797;49.740;10.154;2023-09-19T16:00:02;22.20;18.80
74364;DHT22;62797;49.740;10.154;2023-09-19T16:02:37;22.20;18.60